Marcelin, Canada
Current Conditions -  °F | °C
As of 2:00 AM on Friday 24 Oct 2014 (Local Time) from CYPA Reporting Station
Overcast Overcast  
Wind Chill: 36°   Ceiling: 17000
Heat Index: 36°   Visibility: 15mi
Dew Point: 36°   Wind: 2mph
Humidity: 100%   Direction: 210°SSW
Pressure: 29.51"   Gusts: NA
Location:  52.93°N, 106.78°W
Report Text: CYPA 240800Z 21002KT 15SM BKN170 OVC250 02/02 A2951 RMK AC6CI2 SLP008
Loading
Personal Weather Stations






























Interactive Weather Map
Tropical Storm Tracking
New forecast layout! Learn more

10-Day Weather Forecast

Advertisements
Track Severe Weather on mobile